sensor_id;sensor_type;location;lat;lon;timestamp;P1;durP1;ratioP1;P2;durP2;ratioP2
25984;SDS011;66753;53.848;10.658;2023-02-26T00:01:55;0.33;;;0.13;;
25984;SDS011;66753;53.848;10.658;2023-02-26T00:07:00;1.48;;;0.32;;
25984;SDS011;66753;53.848;10.658;2023-02-26T00:12:01;0.88;;;0.20;;
25984;SDS011;66753;53.848;10.658;2023-02-26T00:27:25;0.00;;;0.00;;
25984;SDS011;66753;53.848;10.658;2023-02-26T00:32:25;1.10;;;0.30;;
25984;SDS011;66753;53.848;10.658;2023-02-26T00:37:36;1.83;;;0.85;;
25984;SDS011;66753;53.848;10.658;2023-02-26T00:42:51;1.58;;;0.25;;
25984;SDS011;66753;53.848;10.658;2023-02-26T00:53:21;1.92;;;0.38;;
25984;SDS011;66753;53.848;10.658;2023-02-26T00:58:27;1.73;;;0.30;;
25984;SDS011;66753;53.848;10.658;2023-02-26T01:03:29;2.23;;;0.30;;
25984;SDS011;66753;53.848;10.658;2023-02-26T01:08:33;1.10;;;0.30;;
25984;SDS011;66753;53.848;10.658;2023-02-26T01:13:42;2.17;;;0.20;;
25984;SDS011;66753;53.848;10.658;2023-02-26T01:18:44;2.60;;;0.43;;
25984;SDS011;66753;53.848;10.658;2023-02-26T01:23:53;0.17;;;0.10;;
25984;SDS011;66753;53.848;10.658;2023-02-26T01:28:54;1.13;;;0.20;;
25984;SDS011;66753;53.848;10.658;2023-02-26T01:33:56;0.63;;;0.10;;
25984;SDS011;66753;53.848;10.658;2023-02-26T01:44:32;2.90;;;0.32;;
25984;SDS011;66753;53.848;10.658;2023-02-26T01:49:40;2.60;;;0.20;;
25984;SDS011;66753;53.848;10.658;2023-02-26T01:54:41;1.67;;;0.50;;
25984;SDS011;66753;53.848;10.658;2023-02-26T01:59:45;0.57;;;0.17;;
25984;SDS011;66753;53.848;10.658;2023-02-26T02:04:48;6.15;;;0.40;;
25984;SDS011;66753;53.848;10.658;2023-02-26T02:09:50;1.38;;;0.50;;
25984;SDS011;66753;53.848;10.658;2023-02-26T02:25:47;2.33;;;0.40;;
25984;SDS011;66753;53.848;10.658;2023-02-26T02:30:55;3.35;;;0.40;;
25984;SDS011;66753;53.848;10.658;2023-02-26T02:36:12;1.70;;;0.30;;
25984;SDS011;66753;53.848;10.658;2023-02-26T02:41:24;1.50;;;0.40;;
25984;SDS011;66753;53.848;10.658;2023-02-26T02:46:30;1.73;;;0.40;;
25984;SDS011;66753;53.848;10.658;2023-02-26T02:51:36;1.08;;;0.17;;
25984;SDS011;66753;53.848;10.658;2023-02-26T02:56:52;1.80;;;0.17;;
25984;SDS011;66753;53.848;10.658;2023-02-26T03:02:01;1.02;;;0.38;;
25984;SDS011;66753;53.848;10.658;2023-02-26T03:07:07;1.63;;;0.20;;
25984;SDS011;66753;53.848;10.658;2023-02-26T03:12:08;0.95;;;0.30;;
25984;SDS011;66753;53.848;10.658;2023-02-26T03:33:30;0.22;;;0.20;;
25984;SDS011;66753;53.848;10.658;2023-02-26T03:38:47;0.88;;;0.30;;
25984;SDS011;66753;53.848;10.658;2023-02-26T03:43:58;0.85;;;0.22;;
25984;SDS011;66753;53.848;10.658;2023-02-26T03:49:04;2.55;;;0.30;;
25984;SDS011;66753;53.848;10.658;2023-02-26T03:54:19;0.63;;;0.13;;
25984;SDS011;66753;53.848;10.658;2023-02-26T03:59:23;2.03;;;0.25;;
25984;SDS011;66753;53.848;10.658;2023-02-26T04:04:29;0.77;;;0.43;;
25984;SDS011;66753;53.848;10.658;2023-02-26T04:09:34;2.28;;;0.43;;
25984;SDS011;66753;53.848;10.658;2023-02-26T04:14:35;0.55;;;0.20;;
25984;SDS011;66753;53.848;10.658;2023-02-26T04:19:35;1.05;;;0.20;;
25984;SDS011;66753;53.848;10.658;2023-02-26T04:24:36;3.10;;;0.60;;
25984;SDS011;66753;53.848;10.658;2023-02-26T04:29:36;0.20;;;0.07;;
25984;SDS011;66753;53.848;10.658;2023-02-26T04:34:37;1.33;;;0.20;;
25984;SDS011;66753;53.848;10.658;2023-02-26T04:39:37;1.42;;;0.30;;
25984;SDS011;66753;53.848;10.658;2023-02-26T04:44:38;0.73;;;0.30;;
25984;SDS011;66753;53.848;10.658;2023-02-26T04:49:41;1.23;;;0.35;;
25984;SDS011;66753;53.848;10.658;2023-02-26T04:54:41;1.73;;;0.40;;
25984;SDS011;66753;53.848;10.658;2023-02-26T04:59:42;1.50;;;0.63;;
25984;SDS011;66753;53.848;10.658;2023-02-26T05:04:42;0.53;;;0.20;;
25984;SDS011;66753;53.848;10.658;2023-02-26T05:09:42;0.87;;;0.23;;
25984;SDS011;66753;53.848;10.658;2023-02-26T05:14:43;1.13;;;0.20;;
25984;SDS011;66753;53.848;10.658;2023-02-26T05:19:43;1.40;;;0.20;;
25984;SDS011;66753;53.848;10.658;2023-02-26T05:24:44;2.03;;;0.27;;
25984;SDS011;66753;53.848;10.658;2023-02-26T05:29:45;1.90;;;0.20;;
25984;SDS011;66753;53.848;10.658;2023-02-26T05:34:45;1.30;;;0.30;;
25984;SDS011;66753;53.848;10.658;2023-02-26T05:39:45;1.20;;;0.23;;
25984;SDS011;66753;53.848;10.658;2023-02-26T05:44:46;1.27;;;0.30;;
25984;SDS011;66753;53.848;10.658;2023-02-26T05:49:46;1.80;;;0.40;;
25984;SDS011;66753;53.848;10.658;2023-02-26T05:54:47;1.83;;;0.30;;
25984;SDS011;66753;53.848;10.658;2023-02-26T05:59:47;2.57;;;0.30;;
25984;SDS011;66753;53.848;10.658;2023-02-26T06:04:48;0.57;;;0.30;;
25984;SDS011;66753;53.848;10.658;2023-02-26T06:09:48;1.17;;;0.27;;
25984;SDS011;66753;53.848;10.658;2023-02-26T06:14:49;1.02;;;0.32;;
25984;SDS011;66753;53.848;10.658;2023-02-26T06:19:49;1.13;;;0.40;;
25984;SDS011;66753;53.848;10.658;2023-02-26T06:24:51;0.80;;;0.20;;
25984;SDS011;66753;53.848;10.658;2023-02-26T06:29:51;1.53;;;0.50;;
25984;SDS011;66753;53.848;10.658;2023-02-26T06:34:51;1.60;;;0.33;;
25984;SDS011;66753;53.848;10.658;2023-02-26T06:39:52;2.77;;;0.30;;
25984;SDS011;66753;53.848;10.658;2023-02-26T06:44:52;0.27;;;0.13;;
25984;SDS011;66753;53.848;10.658;2023-02-26T06:49:53;1.40;;;0.57;;
25984;SDS011;66753;53.848;10.658;2023-02-26T06:54:53;2.23;;;0.40;;
25984;SDS011;66753;53.848;10.658;2023-02-26T06:59:54;1.33;;;0.40;;
25984;SDS011;66753;53.848;10.658;2023-02-26T07:04:54;0.90;;;0.40;;
25984;SDS011;66753;53.848;10.658;2023-02-26T07:09:54;1.50;;;0.50;;
25984;SDS011;66753;53.848;10.658;2023-02-26T07:14:55;2.20;;;0.40;;
25984;SDS011;66753;53.848;10.658;2023-02-26T07:19:55;1.92;;;0.30;;
25984;SDS011;66753;53.848;10.658;2023-02-26T07:24:56;0.77;;;0.30;;
25984;SDS011;66753;53.848;10.658;2023-02-26T07:29:56;0.93;;;0.40;;
25984;SDS011;66753;53.848;10.658;2023-02-26T07:34:57;0.83;;;0.47;;
25984;SDS011;66753;53.848;10.658;2023-02-26T07:39:57;0.95;;;0.32;;
25984;SDS011;66753;53.848;10.658;2023-02-26T07:44:58;2.08;;;0.40;;
25984;SDS011;66753;53.848;10.658;2023-02-26T07:49:59;1.60;;;0.40;;
25984;SDS011;66753;53.848;10.658;2023-02-26T07:54:59;3.60;;;0.50;;
25984;SDS011;66753;53.848;10.658;2023-02-26T08:00:00;1.33;;;0.40;;
25984;SDS011;66753;53.848;10.658;2023-02-26T08:05:00;1.85;;;0.50;;
25984;SDS011;66753;53.848;10.658;2023-02-26T08:10:01;4.33;;;0.60;;
25984;SDS011;66753;53.848;10.658;2023-02-26T08:15:01;4.68;;;0.63;;
25984;SDS011;66753;53.848;10.658;2023-02-26T08:20:02;1.45;;;0.40;;
25984;SDS011;66753;53.848;10.658;2023-02-26T08:25:04;1.00;;;0.25;;
25984;SDS011;66753;53.848;10.658;2023-02-26T08:30:05;1.38;;;0.17;;
25984;SDS011;66753;53.848;10.658;2023-02-26T08:35:07;0.20;;;0.10;;
25984;SDS011;66753;53.848;10.658;2023-02-26T08:40:08;0.15;;;0.10;;
25984;SDS011;66753;53.848;10.658;2023-02-26T08:45:10;1.27;;;0.10;;
25984;SDS011;66753;53.848;10.658;2023-02-26T08:50:11;2.97;;;0.30;;
25984;SDS011;66753;53.848;10.658;2023-02-26T08:55:11;1.45;;;0.30;;
25984;SDS011;66753;53.848;10.658;2023-02-26T09:00:14;3.03;;;0.40;;
25984;SDS011;66753;53.848;10.658;2023-02-26T09:05:16;1.17;;;0.30;;
25984;SDS011;66753;53.848;10.658;2023-02-26T09:10:18;1.52;;;0.30;;
25984;SDS011;66753;53.848;10.658;2023-02-26T09:15:18;0.50;;;0.20;;
25984;SDS011;66753;53.848;10.658;2023-02-26T09:20:19;0.57;;;0.20;;
25984;SDS011;66753;53.848;10.658;2023-02-26T09:25:20;2.22;;;0.30;;
25984;SDS011;66753;53.848;10.658;2023-02-26T09:30:20;0.53;;;0.10;;
25984;SDS011;66753;53.848;10.658;2023-02-26T09:35:20;0.20;;;0.10;;
25984;SDS011;66753;53.848;10.658;2023-02-26T09:40:29;0.30;;;0.10;;
25984;SDS011;66753;53.848;10.658;2023-02-26T09:45:37;0.22;;;0.20;;
25984;SDS011;66753;53.848;10.658;2023-02-26T09:50:41;1.02;;;0.20;;
25984;SDS011;66753;53.848;10.658;2023-02-26T09:55:48;0.20;;;0.10;;
25984;SDS011;66753;53.848;10.658;2023-02-26T10:01:13;1.27;;;0.13;;
25984;SDS011;66753;53.848;10.658;2023-02-26T10:06:29;2.00;;;0.30;;
25984;SDS011;66753;53.848;10.658;2023-02-26T10:16:46;1.90;;;0.70;;
25984;SDS011;66753;53.848;10.658;2023-02-26T10:27:37;2.13;;;0.32;;
25984;SDS011;66753;53.848;10.658;2023-02-26T10:32:49;1.05;;;0.30;;
25984;SDS011;66753;53.848;10.658;2023-02-26T10:37:59;0.73;;;0.22;;
25984;SDS011;66753;53.848;10.658;2023-02-26T10:53:51;1.15;;;0.20;;
25984;SDS011;66753;53.848;10.658;2023-02-26T10:58:56;2.47;;;0.70;;
25984;SDS011;66753;53.848;10.658;2023-02-26T11:03:59;5.95;;;0.40;;
25984;SDS011;66753;53.848;10.658;2023-02-26T11:09:28;2.53;;;0.40;;
25984;SDS011;66753;53.848;10.658;2023-02-26T11:14:33;1.95;;;0.30;;
25984;SDS011;66753;53.848;10.658;2023-02-26T11:19:40;1.42;;;0.40;;
25984;SDS011;66753;53.848;10.658;2023-02-26T11:24:48;0.90;;;0.28;;
25984;SDS011;66753;53.848;10.658;2023-02-26T11:29:54;1.27;;;0.20;;
25984;SDS011;66753;53.848;10.658;2023-02-26T11:34:56;0.52;;;0.20;;
25984;SDS011;66753;53.848;10.658;2023-02-26T11:39:58;1.27;;;0.40;;
25984;SDS011;66753;53.848;10.658;2023-02-26T11:45:03;0.98;;;0.30;;
25984;SDS011;66753;53.848;10.658;2023-02-26T11:50:18;1.80;;;0.30;;
25984;SDS011;66753;53.848;10.658;2023-02-26T11:55:29;1.13;;;0.20;;
25984;SDS011;66753;53.848;10.658;2023-02-26T12:00:35;0.55;;;0.10;;
25984;SDS011;66753;53.848;10.658;2023-02-26T12:05:39;12.48;;;3.28;;
25984;SDS011;66753;53.848;10.658;2023-02-26T12:10:48;2.47;;;0.27;;
25984;SDS011;66753;53.848;10.658;2023-02-26T12:15:56;3.05;;;0.40;;
25984;SDS011;66753;53.848;10.658;2023-02-26T13:08:24;3.45;;;0.50;;
25984;SDS011;66753;53.848;10.658;2023-02-26T13:29:00;2.30;;;0.65;;
25984;SDS011;66753;53.848;10.658;2023-02-26T13:34:05;2.35;;;0.70;;
25984;SDS011;66753;53.848;10.658;2023-02-26T13:39:35;1.30;;;0.52;;
25984;SDS011;66753;53.848;10.658;2023-02-26T13:55:45;1.10;;;0.22;;
25984;SDS011;66753;53.848;10.658;2023-02-26T14:00:56;2.25;;;0.40;;
25984;SDS011;66753;53.848;10.658;2023-02-26T14:06:21;1.88;;;0.45;;
25984;SDS011;66753;53.848;10.658;2023-02-26T14:11:32;1.90;;;0.47;;
25984;SDS011;66753;53.848;10.658;2023-02-26T14:16:33;1.13;;;0.30;;
25984;SDS011;66753;53.848;10.658;2023-02-26T14:21:36;0.98;;;0.20;;
25984;SDS011;66753;53.848;10.658;2023-02-26T14:26:50;1.88;;;0.43;;
25984;SDS011;66753;53.848;10.658;2023-02-26T14:37:11;3.15;;;0.50;;
25984;SDS011;66753;53.848;10.658;2023-02-26T14:42:17;1.15;;;0.47;;
25984;SDS011;66753;53.848;10.658;2023-02-26T14:47:21;1.85;;;0.30;;
25984;SDS011;66753;53.848;10.658;2023-02-26T14:57:59;2.30;;;0.77;;
25984;SDS011;66753;53.848;10.658;2023-02-26T15:03:16;9.00;;;5.13;;
25984;SDS011;66753;53.848;10.658;2023-02-26T15:08:56;3.65;;;2.58;;
25984;SDS011;66753;53.848;10.658;2023-02-26T15:14:33;1.77;;;0.43;;
25984;SDS011;66753;53.848;10.658;2023-02-26T15:24:56;3.20;;;0.40;;
25984;SDS011;66753;53.848;10.658;2023-02-26T15:29:57;3.43;;;0.57;;
25984;SDS011;66753;53.848;10.658;2023-02-26T15:35:06;2.88;;;0.60;;
25984;SDS011;66753;53.848;10.658;2023-02-26T15:40:14;1.17;;;0.32;;
25984;SDS011;66753;53.848;10.658;2023-02-26T15:50:51;3.65;;;0.88;;
25984;SDS011;66753;53.848;10.658;2023-02-26T15:55:53;3.00;;;0.52;;
25984;SDS011;66753;53.848;10.658;2023-02-26T16:00:58;2.50;;;0.35;;
25984;SDS011;66753;53.848;10.658;2023-02-26T16:05:59;1.27;;;0.32;;
25984;SDS011;66753;53.848;10.658;2023-02-26T16:11:00;2.97;;;0.50;;
25984;SDS011;66753;53.848;10.658;2023-02-26T16:16:04;4.65;;;0.50;;
25984;SDS011;66753;53.848;10.658;2023-02-26T16:21:10;2.47;;;0.50;;
25984;SDS011;66753;53.848;10.658;2023-02-26T16:26:23;1.98;;;0.70;;
25984;SDS011;66753;53.848;10.658;2023-02-26T16:31:29;2.85;;;0.70;;
25984;SDS011;66753;53.848;10.658;2023-02-26T16:41:38;4.55;;;1.10;;
25984;SDS011;66753;53.848;10.658;2023-02-26T16:46:40;3.05;;;1.40;;
25984;SDS011;66753;53.848;10.658;2023-02-26T16:51:43;5.05;;;1.90;;
25984;SDS011;66753;53.848;10.658;2023-02-26T16:56:45;4.38;;;2.13;;
25984;SDS011;66753;53.848;10.658;2023-02-26T17:01:50;5.20;;;1.42;;
25984;SDS011;66753;53.848;10.658;2023-02-26T17:06:53;4.03;;;1.27;;
25984;SDS011;66753;53.848;10.658;2023-02-26T17:17:23;3.17;;;0.90;;
25984;SDS011;66753;53.848;10.658;2023-02-26T17:22:26;3.75;;;0.80;;
25984;SDS011;66753;53.848;10.658;2023-02-26T17:32:32;5.68;;;1.58;;
25984;SDS011;66753;53.848;10.658;2023-02-26T17:37:35;5.15;;;1.85;;
25984;SDS011;66753;53.848;10.658;2023-02-26T17:42:36;4.30;;;1.75;;
25984;SDS011;66753;53.848;10.658;2023-02-26T17:47:36;4.63;;;1.97;;
25984;SDS011;66753;53.848;10.658;2023-02-26T17:52:36;6.93;;;1.93;;
25984;SDS011;66753;53.848;10.658;2023-02-26T17:57:37;5.00;;;1.87;;
25984;SDS011;66753;53.848;10.658;2023-02-26T18:02:37;6.28;;;2.28;;
25984;SDS011;66753;53.848;10.658;2023-02-26T18:07:38;7.55;;;2.70;;
25984;SDS011;66753;53.848;10.658;2023-02-26T18:12:39;5.20;;;2.50;;
25984;SDS011;66753;53.848;10.658;2023-02-26T18:17:40;5.80;;;2.37;;
25984;SDS011;66753;53.848;10.658;2023-02-26T18:22:41;6.38;;;2.20;;
25984;SDS011;66753;53.848;10.658;2023-02-26T18:27:41;5.47;;;2.30;;
25984;SDS011;66753;53.848;10.658;2023-02-26T18:32:43;6.35;;;2.85;;
25984;SDS011;66753;53.848;10.658;2023-02-26T18:37:43;6.67;;;2.90;;
25984;SDS011;66753;53.848;10.658;2023-02-26T18:42:44;7.65;;;3.17;;
25984;SDS011;66753;53.848;10.658;2023-02-26T18:47:45;9.02;;;3.78;;
25984;SDS011;66753;53.848;10.658;2023-02-26T18:52:47;9.77;;;3.60;;
25984;SDS011;66753;53.848;10.658;2023-02-26T18:57:47;6.10;;;3.10;;
25984;SDS011;66753;53.848;10.658;2023-02-26T19:02:48;5.77;;;3.03;;
25984;SDS011;66753;53.848;10.658;2023-02-26T19:07:49;6.65;;;2.53;;
25984;SDS011;66753;53.848;10.658;2023-02-26T19:12:50;7.70;;;2.83;;
25984;SDS011;66753;53.848;10.658;2023-02-26T19:17:51;7.33;;;2.97;;
25984;SDS011;66753;53.848;10.658;2023-02-26T19:22:52;5.28;;;3.03;;
25984;SDS011;66753;53.848;10.658;2023-02-26T19:27:52;5.25;;;2.25;;
25984;SDS011;66753;53.848;10.658;2023-02-26T19:32:53;4.72;;;2.50;;
25984;SDS011;66753;53.848;10.658;2023-02-26T19:37:54;5.10;;;1.75;;
25984;SDS011;66753;53.848;10.658;2023-02-26T19:42:54;4.17;;;1.53;;
25984;SDS011;66753;53.848;10.658;2023-02-26T19:47:55;4.88;;;1.55;;
25984;SDS011;66753;53.848;10.658;2023-02-26T19:52:55;3.80;;;1.70;;
25984;SDS011;66753;53.848;10.658;2023-02-26T19:57:57;8.18;;;2.63;;
25984;SDS011;66753;53.848;10.658;2023-02-26T20:02:57;6.03;;;2.90;;
25984;SDS011;66753;53.848;10.658;2023-02-26T20:07:58;4.72;;;2.78;;
25984;SDS011;66753;53.848;10.658;2023-02-26T20:12:58;3.90;;;2.00;;
25984;SDS011;66753;53.848;10.658;2023-02-26T20:17:59;4.97;;;2.27;;
25984;SDS011;66753;53.848;10.658;2023-02-26T20:22:59;8.50;;;2.33;;
25984;SDS011;66753;53.848;10.658;2023-02-26T20:28:00;6.90;;;2.03;;
25984;SDS011;66753;53.848;10.658;2023-02-26T20:33:00;3.78;;;1.40;;
25984;SDS011;66753;53.848;10.658;2023-02-26T20:38:01;4.10;;;1.20;;
25984;SDS011;66753;53.848;10.658;2023-02-26T20:43:02;3.55;;;1.40;;
25984;SDS011;66753;53.848;10.658;2023-02-26T20:48:03;9.13;;;2.10;;
25984;SDS011;66753;53.848;10.658;2023-02-26T20:53:04;4.00;;;1.77;;
25984;SDS011;66753;53.848;10.658;2023-02-26T20:58:06;4.13;;;1.83;;
25984;SDS011;66753;53.848;10.658;2023-02-26T21:03:06;6.20;;;1.93;;
25984;SDS011;66753;53.848;10.658;2023-02-26T21:08:07;4.53;;;1.70;;
25984;SDS011;66753;53.848;10.658;2023-02-26T21:13:09;4.05;;;1.92;;
25984;SDS011;66753;53.848;10.658;2023-02-26T21:18:10;4.15;;;1.38;;
25984;SDS011;66753;53.848;10.658;2023-02-26T21:23:10;5.60;;;1.37;;
25984;SDS011;66753;53.848;10.658;2023-02-26T21:28:10;4.38;;;1.52;;
25984;SDS011;66753;53.848;10.658;2023-02-26T21:33:11;5.93;;;1.50;;
25984;SDS011;66753;53.848;10.658;2023-02-26T21:38:12;6.65;;;2.65;;
25984;SDS011;66753;53.848;10.658;2023-02-26T21:43:13;4.67;;;2.10;;
25984;SDS011;66753;53.848;10.658;2023-02-26T21:48:13;2.95;;;1.45;;
25984;SDS011;66753;53.848;10.658;2023-02-26T21:53:14;3.87;;;1.77;;
25984;SDS011;66753;53.848;10.658;2023-02-26T21:58:14;4.38;;;1.55;;
25984;SDS011;66753;53.848;10.658;2023-02-26T22:03:15;3.13;;;1.50;;
25984;SDS011;66753;53.848;10.658;2023-02-26T22:08:16;6.05;;;1.75;;
25984;SDS011;66753;53.848;10.658;2023-02-26T22:13:16;5.07;;;2.08;;
25984;SDS011;66753;53.848;10.658;2023-02-26T22:18:17;9.37;;;2.13;;
25984;SDS011;66753;53.848;10.658;2023-02-26T22:23:17;5.22;;;1.52;;
25984;SDS011;66753;53.848;10.658;2023-02-26T22:28:18;5.03;;;1.90;;
25984;SDS011;66753;53.848;10.658;2023-02-26T22:33:18;4.27;;;1.70;;
25984;SDS011;66753;53.848;10.658;2023-02-26T22:38:19;4.13;;;1.57;;
25984;SDS011;66753;53.848;10.658;2023-02-26T22:43:19;4.90;;;1.93;;
25984;SDS011;66753;53.848;10.658;2023-02-26T22:48:20;5.05;;;2.13;;
25984;SDS011;66753;53.848;10.658;2023-02-26T22:53:20;7.60;;;2.50;;
25984;SDS011;66753;53.848;10.658;2023-02-26T22:58:21;7.90;;;2.40;;
25984;SDS011;66753;53.848;10.658;2023-02-26T23:03:22;5.90;;;2.50;;
25984;SDS011;66753;53.848;10.658;2023-02-26T23:08:22;3.37;;;1.87;;
25984;SDS011;66753;53.848;10.658;2023-02-26T23:13:23;4.90;;;1.98;;
25984;SDS011;66753;53.848;10.658;2023-02-26T23:18:23;3.88;;;1.92;;
25984;SDS011;66753;53.848;10.658;2023-02-26T23:23:24;3.73;;;1.50;;
25984;SDS011;66753;53.848;10.658;2023-02-26T23:28:25;5.93;;;1.60;;
25984;SDS011;66753;53.848;10.658;2023-02-26T23:33:25;2.40;;;1.38;;
25984;SDS011;66753;53.848;10.658;2023-02-26T23:38:26;3.83;;;1.35;;
25984;SDS011;66753;53.848;10.658;2023-02-26T23:43:26;4.57;;;1.63;;
25984;SDS011;66753;53.848;10.658;2023-02-26T23:48:27;3.70;;;1.35;;
25984;SDS011;66753;53.848;10.658;2023-02-26T23:53:28;4.05;;;1.52;;
25984;SDS011;66753;53.848;10.658;2023-02-26T23:58:28;4.73;;;1.50;;
